Time;durP1;ratioP1;P1;durP2;ratioP2;P2;SDS_P1;SDS_P2;PMS_P1;PMS_P2;Temp;Humidity;BMP_temperature;BMP_pressure;BME280_temperature;BME280_humidity;BME280_pressure;Samples;Min_cycle;Max_cycle;Signal;HPM_P1;HPM_P2
2021/08/26 00:08:41;;;;;;;20.25;11.20;;;;;;;15.86;100.00;94599.59;10289758;28;20043;-73
2021/08/26 00:13:43;;;;;;;22.40;11.57;;;;;;;15.80;100.00;94595.44;10289407;28;20030;-72
2021/08/26 00:18:43;;;;;;;16.95;9.80;;;;;;;15.64;100.00;94597.72;10289890;28;20289;-72
2021/08/26 00:23:44;;;;;;;24.37;10.13;;;;;;;15.58;100.00;94596.22;10289561;28;20025;-72
2021/08/26 00:28:44;;;;;;;23.55;11.50;;;;;;;15.38;100.00;94597.53;10289129;28;20027;-72
2021/08/26 00:33:44;;;;;;;13.75;9.10;;;;;;;15.27;100.00;94588.03;10288963;28;20027;-72
2021/08/26 00:38:45;;;;;;;19.80;10.47;;;;;;;15.28;100.00;94592.31;10288796;28;20153;-72
2021/08/26 00:43:46;;;;;;;17.10;10.10;;;;;;;15.20;100.00;94605.50;10289385;28;20031;-72
2021/08/26 00:48:47;;;;;;;17.92;10.85;;;;;;;15.33;100.00;94594.91;10289025;28;20030;-72
2021/08/26 00:53:48;;;;;;;18.33;10.25;;;;;;;15.42;100.00;94595.81;10288752;28;20027;-72
2021/08/26 00:58:49;;;;;;;22.95;10.20;;;;;;;15.39;100.00;94601.81;10288792;28;20018;-72
2021/08/26 01:04:04;;;;;;;22.77;10.35;;;;;;;15.34;100.00;94589.19;10288293;28;20026;-72
2021/08/26 01:09:11;;;;;;;18.58;10.07;;;;;;;15.36;100.00;94597.00;10287921;28;20050;-72
2021/08/26 01:14:15;;;;;;;19.08;10.27;;;;;;;15.35;100.00;94595.44;10288075;28;20046;-72
2021/08/26 01:19:15;;;;;;;15.55;9.00;;;;;;;15.30;100.00;94590.13;10287862;28;20030;-72
2021/08/26 01:24:18;;;;;;;21.80;11.03;;;;;;;15.28;100.00;94565.25;10287465;28;20475;-72
2021/08/26 01:29:20;;;;;;;18.20;10.18;;;;;;;15.21;100.00;94574.59;10287442;28;20356;-72
2021/08/26 01:34:21;;;;;;;15.32;9.32;;;;;;;15.18;100.00;94574.41;10286977;28;20023;-72
2021/08/26 01:39:21;;;;;;;24.75;10.20;;;;;;;15.14;100.00;94578.84;10287119;28;20031;-72
2021/08/26 01:44:29;;;;;;;20.47;10.43;;;;;;;15.11;100.00;94577.56;10286781;28;20030;-72
2021/08/26 01:49:29;;;;;;;18.42;10.52;;;;;;;15.12;100.00;94586.47;10286650;28;20298;-72
2021/08/26 01:54:29;;;;;;;21.43;11.20;;;;;;;15.15;100.00;94588.56;10286641;28;20101;-72
2021/08/26 01:59:33;;;;;;;22.83;11.70;;;;;;;15.15;100.00;94592.09;10286302;28;20055;-72
2021/08/26 02:04:33;;;;;;;21.73;10.90;;;;;;;15.30;100.00;94576.59;10286335;28;20438;-72
2021/08/26 02:09:33;;;;;;;21.07;10.53;;;;;;;15.11;100.00;94588.38;10286191;28;20047;-72
2021/08/26 02:14:34;;;;;;;22.42;12.15;;;;;;;15.24;100.00;94586.75;10268991;28;20118;-72
2021/08/26 02:19:34;;;;;;;21.20;10.73;;;;;;;15.32;100.00;94575.19;10285876;28;20426;-72
2021/08/26 02:24:35;;;;;;;17.45;10.35;;;;;;;15.37;100.00;94574.25;10286053;28;20270;-72
2021/08/26 02:29:35;;;;;;;19.50;10.60;;;;;;;15.50;100.00;94565.28;10285834;28;20061;-72
2021/08/26 02:34:36;;;;;;;20.27;9.77;;;;;;;15.59;100.00;94554.50;10286433;28;20023;-72
2021/08/26 02:39:36;;;;;;;18.52;8.80;;;;;;;15.55;100.00;94554.28;10293937;28;20285;-72
2021/08/26 02:44:37;;;;;;;15.30;7.78;;;;;;;15.47;100.00;94552.31;10293889;28;20463;-72
2021/08/26 02:49:37;;;;;;;16.10;8.67;;;;;;;15.55;100.00;94548.09;10293242;28;20031;-72
2021/08/26 02:54:37;;;;;;;13.30;8.47;;;;;;;15.57;100.00;94545.06;10293377;28;20450;-72
2021/08/26 02:59:38;;;;;;;17.73;8.97;;;;;;;15.55;100.00;94542.66;10293213;28;20421;-72
2021/08/26 03:04:38;;;;;;;16.83;8.60;;;;;;;15.53;100.00;94534.84;10293005;28;20113;-72
2021/08/26 03:09:38;;;;;;;14.97;7.27;;;;;;;15.52;100.00;94535.97;10292375;28;20295;-72
2021/08/26 03:14:39;;;;;;;16.40;8.40;;;;;;;15.43;100.00;94534.31;10292843;28;20090;-72
2021/08/26 03:19:39;;;;;;;10.10;7.10;;;;;;;15.38;100.00;94535.22;10290909;28;20478;-72
2021/08/26 03:24:40;;;;;;;13.40;7.33;;;;;;;15.36;100.00;94535.56;10290983;28;20489;-72
2021/08/26 03:29:40;;;;;;;44.93;27.47;;;;;;;15.20;100.00;94535.09;10291218;28;20382;-72
2021/08/26 03:34:40;;;;;;;16.90;10.13;;;;;;;15.25;100.00;94536.09;10291818;28;20522;-72
2021/08/26 03:39:42;;;;;;;15.93;8.87;;;;;;;15.21;100.00;94547.53;10291552;28;20031;-72
2021/08/26 03:44:42;;;;;;;15.07;7.40;;;;;;;15.29;100.00;94537.88;10291235;28;20284;-72
2021/08/26 03:49:43;;;;;;;14.00;8.57;;;;;;;15.46;100.00;94542.63;10289807;28;20489;-72
2021/08/26 03:54:43;;;;;;;14.73;8.50;;;;;;;15.46;100.00;94531.78;10290753;28;20360;-72
2021/08/26 03:59:43;;;;;;;12.20;7.90;;;;;;;15.49;100.00;94531.16;10291010;28;20046;-72
2021/08/26 04:04:44;;;;;;;16.03;9.77;;;;;;;15.58;100.00;94535.84;10289340;28;20641;-72
2021/08/26 04:09:45;;;;;;;12.90;6.70;;;;;;;15.67;100.00;94533.97;10289305;28;20101;-72
2021/08/26 04:14:45;;;;;;;18.33;8.00;;;;;;;15.84;100.00;94523.25;10289217;28;20077;-72
2021/08/26 04:19:46;;;;;;;16.77;7.63;;;;;;;15.96;100.00;94519.94;10289711;28;20088;-72
2021/08/26 04:24:47;;;;;;;14.63;7.18;;;;;;;16.02;100.00;94531.47;10288819;28;20356;-72
2021/08/26 04:29:47;;;;;;;12.10;7.90;;;;;;;16.17;100.00;94528.34;10289053;28;20031;-72
2021/08/26 04:34:47;;;;;;;13.20;7.33;;;;;;;16.22;100.00;94539.03;10288778;28;20518;-72
2021/08/26 04:39:48;;;;;;;18.27;7.43;;;;;;;16.29;100.00;94535.88;10288474;28;20034;-74
2021/08/26 04:44:48;;;;;;;12.77;7.20;;;;;;;16.61;100.00;94520.31;10288736;28;20049;-72
2021/08/26 04:49:49;;;;;;;10.97;7.33;;;;;;;16.74;100.00;94519.38;10288896;28;20030;-74
2021/08/26 04:54:49;;;;;;;12.03;6.80;;;;;;;16.95;100.00;94494.34;10288021;28;20394;-72
2021/08/26 04:59:49;;;;;;;14.37;8.93;;;;;;;17.03;100.00;94503.63;10287912;28;20273;-71
2021/08/26 05:04:49;;;;;;;12.47;7.47;;;;;;;17.02;100.00;94497.41;10287829;28;20035;-72
2021/08/26 05:09:50;;;;;;;18.03;9.97;;;;;;;17.04;100.00;94481.56;10287750;28;20565;-70
2021/08/26 05:14:50;;;;;;;10.53;6.90;;;;;;;17.33;100.00;94471.97;10287902;28;20034;-71
2021/08/26 05:19:51;;;;;;;11.63;6.88;;;;;;;17.75;100.00;94480.31;10285855;28;20340;-72
2021/08/26 05:24:51;;;;;;;9.45;6.88;;;;;;;18.03;100.00;94495.44;10286705;28;20033;-72
2021/08/26 05:29:52;;;;;;;9.38;6.18;;;;;;;18.10;100.00;94495.75;10286853;28;20462;-72
2021/08/26 05:34:52;;;;;;;17.73;6.80;;;;;;;17.96;100.00;94487.00;10286782;28;20033;-71
2021/08/26 05:39:52;;;;;;;9.30;4.97;;;;;;;17.11;100.00;94481.09;10286876;28;20034;-71
2021/08/26 05:44:53;;;;;;;14.30;6.93;;;;;;;16.61;100.00;94473.41;10286732;28;20031;-71
2021/08/26 05:49:53;;;;;;;14.60;7.33;;;;;;;16.38;100.00;94477.03;10286174;28;20286;-71
2021/08/26 05:54:53;;;;;;;13.07;7.03;;;;;;;16.38;100.00;94452.63;10286188;28;20078;-71
2021/08/26 05:59:54;;;;;;;13.57;7.53;;;;;;;16.07;100.00;94468.97;10285959;28;20470;-71
2021/08/26 06:04:54;;;;;;;10.63;6.60;;;;;;;16.17;100.00;94506.66;10286119;28;20046;-71
2021/08/26 06:09:55;;;;;;;9.18;6.07;;;;;;;16.64;100.00;94497.19;10283767;28;20154;-71
2021/08/26 06:14:55;;;;;;;11.33;6.87;;;;;;;17.03;100.00;94479.19;10286096;28;20085;-72
2021/08/26 06:19:55;;;;;;;12.70;6.00;;;;;;;17.12;100.00;94485.41;10286010;28;20378;-72
2021/08/26 06:24:56;;;;;;;9.50;5.63;;;;;;;17.18;100.00;94500.41;10285507;28;20133;-72
2021/08/26 06:29:56;;;;;;;12.30;5.50;;;;;;;17.34;100.00;94505.34;10285600;28;20039;-71
2021/08/26 06:34:58;;;;;;;9.13;5.87;;;;;;;17.32;100.00;94491.31;10285342;28;20673;-71
2021/08/26 06:39:59;;;;;;;7.85;5.00;;;;;;;17.10;100.00;94455.06;10285330;28;20107;-71
2021/08/26 06:44:59;;;;;;;8.05;4.68;;;;;;;18.01;100.00;94448.75;10285391;28;20646;-72
2021/08/26 06:49:59;;;;;;;11.35;4.13;;;;;;;19.15;100.00;94462.41;10285331;28;20038;-72
2021/08/26 06:55:00;;;;;;;6.30;4.37;;;;;;;18.73;100.00;94467.84;10284712;28;20031;-72
2021/08/26 07:00:00;;;;;;;9.93;5.57;;;;;;;18.17;100.00;94452.50;10284881;28;20078;-72
2021/08/26 07:05:02;;;;;;;9.45;5.95;;;;;;;17.99;100.00;94457.25;10284332;28;20034;-72
2021/08/26 07:10:04;;;;;;;11.90;5.57;;;;;;;18.18;100.00;94465.00;10283714;28;20034;-71
2021/08/26 07:15:05;;;;;;;13.82;7.85;;;;;;;18.34;100.00;94461.72;10283522;28;20456;-71
2021/08/26 07:20:06;;;;;;;9.93;5.95;;;;;;;18.22;100.00;94468.66;10284611;28;20041;-72
2021/08/26 07:25:06;;;;;;;10.63;5.82;;;;;;;18.10;100.00;94468.56;10292097;28;20023;-72
2021/08/26 07:30:07;;;;;;;13.75;6.82;;;;;;;18.10;100.00;94471.28;10291888;28;20466;-71
2021/08/26 07:35:08;;;;;;;11.65;6.93;;;;;;;17.85;100.00;94448.47;10291339;28;20030;-72
2021/08/26 07:40:11;;;;;;;15.20;7.13;;;;;;;18.14;100.00;94468.69;10291029;28;20019;-72
2021/08/26 07:45:12;;;;;;;12.50;7.32;;;;;;;18.33;100.00;94481.88;10291300;28;20054;-72
2021/08/26 07:50:13;;;;;;;14.18;7.25;;;;;;;18.66;100.00;94456.72;10291237;28;20558;-71
2021/08/26 07:55:13;;;;;;;14.98;8.50;;;;;;;18.73;100.00;94467.84;10290900;28;20035;-72
2021/08/26 08:00:14;;;;;;;13.07;7.63;;;;;;;18.44;100.00;94483.09;10290818;28;20054;-72
2021/08/26 08:05:14;;;;;;;16.10;8.52;;;;;;;18.15;100.00;94471.06;10290446;28;20026;-72
2021/08/26 08:10:15;;;;;;;13.53;7.80;;;;;;;18.09;100.00;94456.06;10289610;28;20457;-72
2021/08/26 08:15:16;;;;;;;13.13;7.70;;;;;;;18.02;100.00;94432.09;10289598;28;20407;-72
2021/08/26 08:20:16;;;;;;;11.38;7.63;;;;;;;18.16;100.00;94434.59;10289673;28;20027;-72
2021/08/26 08:25:17;;;;;;;17.17;9.38;;;;;;;18.54;100.00;94441.09;10289649;28;20030;-73
2021/08/26 08:30:17;;;;;;;16.33;8.77;;;;;;;18.69;100.00;94436.97;10288872;28;20042;-72
2021/08/26 08:35:17;;;;;;;16.17;8.53;;;;;;;19.09;100.00;94442.75;10288601;28;20030;-72
2021/08/26 08:40:18;;;;;;;14.37;8.10;;;;;;;19.19;100.00;94430.66;10288635;28;20441;-73
2021/08/26 08:45:19;;;;;;;14.52;8.32;;;;;;;18.82;100.00;94454.97;10288871;28;20114;-72
2021/08/26 08:50:24;;;;;;;16.83;7.70;;;;;;;18.40;100.00;94460.38;10288787;28;20117;-72
2021/08/26 08:55:25;;;;;;;16.42;8.90;;;;;;;18.45;100.00;94458.25;10288292;28;20038;-72
2021/08/26 09:00:25;;;;;;;17.15;8.45;;;;;;;18.45;100.00;94460.19;10288277;28;20450;-72
2021/08/26 09:05:25;;;;;;;13.65;8.32;;;;;;;18.20;100.00;94465.44;10287028;28;20051;-73
2021/08/26 09:10:35;;;;;;;20.27;8.83;;;;;;;17.95;100.00;94460.94;10287625;28;20031;-72
2021/08/26 09:15:45;;;;;;;17.83;9.40;;;;;;;17.98;100.00;94471.16;10287574;28;20105;-72
2021/08/26 09:20:49;;;;;;;16.17;9.40;;;;;;;17.92;100.00;94470.56;10287977;28;20463;-72
2021/08/26 09:25:51;;;;;;;15.30;8.70;;;;;;;18.10;100.00;94452.25;10288557;28;20030;-72
2021/08/26 09:31:08;;;;;;;15.68;8.27;;;;;;;18.19;100.00;94469.28;10288450;28;20070;-72
2021/08/26 09:36:16;;;;;;;17.77;8.68;;;;;;;18.19;100.00;94465.78;10288637;28;20035;-73
2021/08/26 09:41:48;;;;;;;18.08;9.70;;;;;;;18.10;100.00;94474.78;10287886;28;20118;-73
2021/08/26 09:46:51;;;;;;;25.77;11.85;;;;;;;18.11;100.00;94483.72;10287038;28;20035;-73
2021/08/26 09:52:10;;;;;;;22.77;9.15;;;;;;;17.95;100.00;94485.41;10287884;28;20053;-74
2021/08/26 09:57:28;;;;;;;23.80;10.15;;;;;;;18.23;100.00;94478.38;10287678;28;20066;-73
2021/08/26 10:02:30;;;;;;;17.83;10.40;;;;;;;18.28;100.00;94475.50;10287930;28;20393;-73
2021/08/26 10:07:31;;;;;;;18.88;9.65;;;;;;;18.16;100.00;94472.66;10287108;28;20055;-73
2021/08/26 10:12:31;;;;;;;17.60;10.00;;;;;;;18.45;100.00;94468.38;10287191;28;20478;-74
2021/08/26 10:17:32;;;;;;;19.73;11.13;;;;;;;18.40;100.00;94471.25;10287319;28;20023;-73
2021/08/26 10:22:32;;;;;;;19.80;10.17;;;;;;;18.59;100.00;94471.63;10286901;28;20841;-72
2021/08/26 10:27:33;;;;;;;17.10;10.37;;;;;;;18.69;100.00;94461.47;10286948;28;20286;-72
2021/08/26 10:32:33;;;;;;;17.88;11.52;;;;;;;18.91;100.00;94460.38;10286939;28;20038;-73
2021/08/26 10:37:50;;;;;;;24.20;11.20;;;;;;;19.24;100.00;94463.13;10286877;28;20851;-72
2021/08/26 10:42:50;;;;;;;24.75;10.90;;;;;;;19.35;100.00;94455.31;10285235;28;20366;-72
2021/08/26 10:47:52;;;;;;;19.38;11.40;;;;;;;19.51;100.00;94450.03;10286756;28;20034;-72
2021/08/26 10:53:15;;;;;;;14.88;9.80;;;;;;;19.67;100.00;94463.03;10286548;28;20094;-72
2021/08/26 10:58:22;;;;;;;22.58;11.95;;;;;;;19.55;100.00;94464.59;10290902;28;20026;-72
2021/08/26 11:03:34;;;;;;;24.83;13.20;;;;;;;19.36;100.00;94456.91;10294127;28;20037;-72
2021/08/26 11:08:35;;;;;;;24.20;11.80;;;;;;;20.07;100.00;94454.25;10293438;28;20101;-76
2021/08/26 11:13:35;;;;;;;23.73;12.20;;;;;;;20.88;100.00;94442.69;10292447;28;20048;-72
2021/08/26 11:18:35;;;;;;;22.90;10.53;;;;;;;22.19;100.00;94434.81;10293207;28;20035;-72
2021/08/26 11:23:45;;;;;;;18.67;10.60;;;;;;;22.67;100.00;94419.09;10293407;28;20486;-75
2021/08/26 11:28:45;;;;;;;21.23;11.23;;;;;;;22.46;100.00;94413.16;10293068;28;20018;-74
2021/08/26 11:33:46;;;;;;;24.03;11.17;;;;;;;22.38;100.00;94403.19;10293023;28;20027;-74
2021/08/26 11:38:49;;;;;;;22.58;12.48;;;;;;;21.79;100.00;94395.53;10292919;28;20022;-74
2021/08/26 11:43:50;;;;;;;21.30;13.32;;;;;;;21.20;100.00;94396.34;10292555;28;20042;-70
2021/08/26 11:48:54;;;;;;;22.10;12.18;;;;;;;20.85;100.00;94386.81;10292552;28;20093;-70
2021/08/26 11:54:28;;;;;;;25.17;12.90;;;;;;;20.63;100.00;94369.78;10292021;28;20450;-72
2021/08/26 11:59:37;;;;;;;21.50;12.32;;;;;;;20.62;100.00;94365.47;10291632;28;20066;-72
2021/08/26 12:04:38;;;;;;;25.02;13.60;;;;;;;20.86;100.00;94363.00;10291350;28;20058;-72
2021/08/26 12:09:38;;;;;;;39.63;15.00;;;;;;;20.90;100.00;94348.31;10289588;28;20053;-72
2021/08/26 12:14:40;;;;;;;22.45;13.10;;;;;;;21.08;100.00;94337.84;10291239;28;20094;-72
2021/08/26 12:19:41;;;;;;;25.48;13.60;;;;;;;20.54;100.00;94338.28;10291273;28;20435;-72
2021/08/26 12:24:54;;;;;;;22.25;14.52;;;;;;;20.84;100.00;94330.59;10290652;28;20035;-72
2021/08/26 12:29:55;;;;;;;26.60;14.52;;;;;;;21.06;100.00;94322.97;10290954;28;20386;-72
2021/08/26 12:35:22;;;;;;;24.90;14.60;;;;;;;21.06;100.00;94314.78;10290693;28;20035;-72
2021/08/26 12:40:26;;;;;;;23.85;13.27;;;;;;;21.71;100.00;94313.66;10290578;28;20034;-72
2021/08/26 12:45:28;;;;;;;21.83;12.23;;;;;;;22.43;100.00;94290.66;10290297;28;20034;-73
2021/08/26 12:50:30;;;;;;;21.88;13.32;;;;;;;22.68;100.00;94280.97;10290003;28;20479;-72
2021/08/26 12:55:31;;;;;;;18.92;11.82;;;;;;;22.96;100.00;94279.94;10289829;28;20089;-72
2021/08/26 13:00:38;;;;;;;22.47;12.23;;;;;;;23.18;100.00;94274.88;10289914;28;20031;-72
2021/08/26 13:05:50;;;;;;;19.88;11.88;;;;;;;23.10;100.00;94264.91;10289030;28;20310;-72
2021/08/26 13:10:50;;;;;;;19.45;13.25;;;;;;;23.27;100.00;94256.22;10289163;28;20035;-72
2021/08/26 13:15:51;;;;;;;19.40;12.47;;;;;;;23.31;100.00;94261.78;10288846;28;20034;-73
2021/08/26 13:20:52;;;;;;;23.17;13.70;;;;;;;22.96;100.00;94268.19;10288820;28;20026;-72
2021/08/26 13:25:53;;;;;;;18.42;12.88;;;;;;;22.62;100.00;94266.00;10288807;28;20282;-74
2021/08/26 13:30:54;;;;;;;19.20;14.00;;;;;;;22.27;100.00;94271.50;10288326;28;20042;-72
2021/08/26 13:35:55;;;;;;;24.02;15.40;;;;;;;22.01;100.00;94270.19;10288481;28;20031;-72
2021/08/26 13:40:55;;;;;;;24.48;16.55;;;;;;;21.68;100.00;94272.22;10287979;28;20736;-72
2021/08/26 13:45:56;;;;;;;25.13;15.23;;;;;;;21.24;100.00;94275.03;10287732;28;20058;-72
2021/08/26 13:50:56;;;;;;;21.25;13.40;;;;;;;20.84;100.00;94286.88;10287837;28;20385;-72
2021/08/26 13:55:57;;;;;;;18.90;10.77;;;;;;;20.60;100.00;94287.78;10287730;28;20070;-72
2021/08/26 14:00:57;;;;;;;19.63;9.97;;;;;;;20.38;100.00;94286.38;10287067;28;20041;-72
2021/08/26 14:05:57;;;;;;;17.13;10.70;;;;;;;20.03;100.00;94286.94;10287466;28;20360;-72
2021/08/26 14:10:58;;;;;;;20.33;11.67;;;;;;;19.77;100.00;94290.78;10285931;28;20495;-72
2021/08/26 14:15:59;;;;;;;22.33;10.47;;;;;;;19.58;100.00;94316.72;10287075;28;20561;-73
2021/08/26 14:21:00;;;;;;;19.20;12.18;;;;;;;19.09;100.00;94338.47;10287047;28;20282;-72
2021/08/26 14:26:01;;;;;;;21.48;10.85;;;;;;;18.52;100.00;94321.69;10286857;28;20030;-72
2021/08/26 14:31:01;;;;;;;17.48;10.30;;;;;;;18.14;100.00;94333.50;10287751;28;20410;-72
2021/08/26 14:36:04;;;;;;;21.90;12.37;;;;;;;17.98;100.00;94321.63;10295015;28;20509;-72
2021/08/26 14:41:05;;;;;;;25.75;12.75;;;;;;;17.77;100.00;94330.50;10294719;28;20277;-72
2021/08/26 14:46:05;;;;;;;24.13;13.20;;;;;;;17.82;100.00;94326.78;10294279;28;20042;-72
2021/08/26 14:51:06;;;;;;;27.77;14.40;;;;;;;17.83;100.00;94312.09;10294007;28;20042;-72
2021/08/26 14:56:06;;;;;;;21.50;12.70;;;;;;;17.73;100.00;94313.25;10293920;28;20038;-72
2021/08/26 15:01:06;;;;;;;23.37;12.37;;;;;;;17.38;100.00;94356.91;10293473;28;20026;-72
2021/08/26 15:06:07;;;;;;;24.73;12.93;;;;;;;17.31;100.00;94326.75;10293220;28;20302;-72
2021/08/26 15:11:07;;;;;;;24.02;13.15;;;;;;;17.17;100.00;94329.66;10293826;28;20049;-72
2021/08/26 15:16:08;;;;;;;21.57;12.93;;;;;;;17.23;100.00;94322.91;10293670;28;20039;-72
2021/08/26 15:21:10;;;;;;;23.90;12.52;;;;;;;17.10;100.00;94313.09;10293251;28;20299;-72
2021/08/26 15:26:10;;;;;;;30.98;12.63;;;;;;;17.20;100.00;94305.34;10276060;28;20042;-72
2021/08/26 15:31:10;;;;;;;28.20;14.00;;;;;;;17.21;100.00;94314.31;10292752;28;20145;-72
2021/08/26 15:36:11;;;;;;;22.23;14.13;;;;;;;17.33;100.00;94305.47;10292934;28;20113;-72
2021/08/26 15:41:11;;;;;;;27.20;15.47;;;;;;;17.39;100.00;94302.25;10292573;28;20089;-72
2021/08/26 15:46:14;;;;;;;28.10;14.73;;;;;;;17.46;100.00;94304.47;10291360;28;20371;-72
2021/08/26 15:51:14;;;;;;;27.02;16.25;;;;;;;17.57;100.00;94294.81;10291806;28;20039;-72
2021/08/26 15:56:15;;;;;;;32.83;19.00;;;;;;;17.66;100.00;94299.41;10290208;28;20035;-72
2021/08/26 16:01:18;;;;;;;31.50;19.48;;;;;;;17.78;100.00;94304.91;10290080;28;20478;-72
2021/08/26 16:06:22;;;;;;;29.80;17.55;;;;;;;17.77;100.00;94295.97;10290041;28;20146;-72
2021/08/26 16:11:23;;;;;;;31.25;17.80;;;;;;;17.89;100.00;94281.66;10289780;28;20479;-72
2021/08/26 16:16:23;;;;;;;27.33;16.07;;;;;;;17.97;100.00;94273.78;10289623;28;20031;-72
2021/08/26 16:21:24;;;;;;;27.05;16.33;;;;;;;18.02;100.00;94274.41;10290077;28;20038;-72
2021/08/26 16:26:26;;;;;;;28.17;17.83;;;;;;;17.94;100.00;94261.66;10289773;28;20515;-72
2021/08/26 16:31:27;;;;;;;35.20;18.15;;;;;;;17.98;100.00;94280.84;10289730;28;20035;-72
2021/08/26 16:36:27;;;;;;;43.30;20.48;;;;;;;17.89;100.00;94300.69;10289762;28;20737;-72
2021/08/26 16:41:35;;;;;;;37.53;19.52;;;;;;;17.83;100.00;94312.09;10289986;28;20034;-72
2021/08/26 16:46:35;;;;;;;30.80;17.15;;;;;;;17.84;100.00;94297.38;10287885;28;20513;-72
2021/08/26 16:51:36;;;;;;;37.38;19.02;;;;;;;17.79;100.00;94306.53;10321535;28;20066;-72
2021/08/26 16:56:36;;;;;;;36.83;19.00;;;;;;;17.67;100.00;94292.84;10328116;28;20069;-79
2021/08/26 17:01:36;;;;;;;31.20;20.40;;;;;;;17.66;100.00;94305.63;10302973;28;20110;-80
2021/08/26 17:06:37;;;;;;;35.88;20.33;;;;;;;17.66;100.00;94293.97;10288519;28;20047;-79
2021/08/26 17:11:37;;;;;;;26.13;16.40;;;;;;;17.60;100.00;94283.28;10341273;28;20088;-79
2021/08/26 17:16:38;;;;;;;27.73;15.47;;;;;;;17.43;100.00;94264.38;10342578;28;20288;-80
2021/08/26 17:21:38;;;;;;;26.13;15.38;;;;;;;17.28;100.00;94271.16;10327925;28;20061;-79
2021/08/26 17:26:39;;;;;;;29.75;16.92;;;;;;;17.17;100.00;94269.94;10337118;28;20026;-79
2021/08/26 17:31:39;;;;;;;29.15;17.48;;;;;;;17.19;100.00;94275.81;10369051;28;20473;-80
2021/08/26 17:36:40;;;;;;;35.00;19.88;;;;;;;17.15;100.00;94256.69;10369445;28;20030;-79
2021/08/26 17:41:40;;;;;;;31.03;17.63;;;;;;;17.16;100.00;94269.09;10368850;28;20053;-79
2021/08/26 17:46:40;;;;;;;35.47;19.83;;;;;;;17.09;100.00;94282.41;10368991;28;20109;-79
2021/08/26 17:51:41;;;;;;;32.70;18.13;;;;;;;17.17;100.00;94300.59;10368913;28;20032;-80
2021/08/26 17:56:41;;;;;;;32.00;19.47;;;;;;;17.19;100.00;94298.34;10368640;28;20067;-79
2021/08/26 18:01:42;;;;;;;35.22;20.52;;;;;;;17.16;100.00;94298.97;10368477;28;20033;-79
2021/08/26 18:06:42;;;;;;;41.88;21.88;;;;;;;17.21;100.00;94306.97;10330329;28;20046;-80
2021/08/26 18:11:43;;;;;;;40.45;23.35;;;;;;;17.31;100.00;94340.31;10327744;28;20049;-80
2021/08/26 18:16:43;;;;;;;36.67;21.67;;;;;;;17.39;100.00;94358.50;10300271;28;20490;-79
2021/08/26 18:21:45;;;;;;;45.58;22.55;;;;;;;17.24;100.00;94362.53;10286921;28;20795;-80
2021/08/26 18:26:45;;;;;;;37.45;22.50;;;;;;;17.21;100.00;94363.97;10287581;28;20121;-80
2021/08/26 18:31:46;;;;;;;36.78;22.85;;;;;;;17.23;100.00;94361.75;10286743;28;20117;-80
2021/08/26 18:36:46;;;;;;;34.40;21.50;;;;;;;17.37;100.00;94377.03;10288301;28;20402;-80
2021/08/26 18:41:47;;;;;;;37.67;21.77;;;;;;;17.35;100.00;94371.16;10288302;28;20475;-80
2021/08/26 18:46:47;;;;;;;39.83;21.63;;;;;;;17.33;100.00;94370.66;10286676;28;20590;-80
2021/08/26 18:51:48;;;;;;;43.87;23.50;;;;;;;17.15;100.00;94365.28;10286523;28;20089;-80
2021/08/26 18:56:48;;;;;;;46.67;25.75;;;;;;;17.08;100.00;94371.22;10287228;28;20476;-80
2021/08/26 19:01:49;;;;;;;45.40;26.13;;;;;;;17.27;100.00;94378.19;10286478;28;20106;-80
2021/08/26 19:06:49;;;;;;;45.10;24.60;;;;;;;17.41;100.00;94383.41;10361492;28;20301;-79
2021/08/26 19:11:49;;;;;;;56.63;25.53;;;;;;;17.32;100.00;94388.09;10367162;28;20030;-79
2021/08/26 19:16:50;;;;;;;45.00;24.27;;;;;;;17.33;100.00;94382.34;10367808;28;20287;-78
2021/08/26 19:21:50;;;;;;;42.88;23.33;;;;;;;17.42;100.00;94374.94;10374311;28;20030;-78
2021/08/26 19:26:51;;;;;;;52.28;26.27;;;;;;;17.39;100.00;94377.53;10373955;28;20038;-78
2021/08/26 19:31:51;;;;;;;45.58;26.00;;;;;;;17.36;100.00;94367.31;10373262;28;20030;-78
2021/08/26 19:36:52;;;;;;;48.92;24.35;;;;;;;17.34;100.00;94377.69;10373354;28;20022;-78
2021/08/26 19:41:52;;;;;;;48.25;25.50;;;;;;;17.45;100.00;94373.50;10373318;28;20032;-78
2021/08/26 19:46:53;;;;;;;47.03;24.63;;;;;;;17.36;100.00;94359.16;10373136;28;20033;-78
2021/08/26 19:51:53;;;;;;;47.47;24.20;;;;;;;17.30;100.00;94357.72;10355187;28;20030;-78
2021/08/26 19:56:54;;;;;;;38.13;19.92;;;;;;;17.32;100.00;94353.56;10372864;28;20108;-78
2021/08/26 20:01:54;;;;;;;41.17;19.97;;;;;;;17.41;100.00;94356.25;10372773;28;20068;-78
2021/08/26 20:06:54;;;;;;;37.77;22.13;;;;;;;17.42;100.00;94363.28;10333374;28;20301;-78
2021/08/26 20:11:55;;;;;;;33.00;18.13;;;;;;;17.28;100.00;94355.34;10332021;28;20038;-79
2021/08/26 20:16:55;;;;;;;33.60;19.70;;;;;;;17.31;100.00;94343.81;10331138;28;20486;-78
2021/08/26 20:21:55;;;;;;;37.23;19.93;;;;;;;17.42;100.00;94330.69;10331446;28;20080;-79
2021/08/26 20:26:56;;;;;;;42.37;20.80;;;;;;;17.45;100.00;94337.38;10331448;28;20022;-79
2021/08/26 20:31:56;;;;;;;40.58;20.75;;;;;;;17.47;100.00;94340.56;10329513;28;20453;-79
2021/08/26 20:36:57;;;;;;;39.23;21.40;;;;;;;17.47;100.00;94360.41;10330880;28;20541;-80
2021/08/26 20:41:57;;;;;;;41.00;22.87;;;;;;;17.46;100.00;94366.94;10331335;28;20424;-79
2021/08/26 20:46:58;;;;;;;38.80;18.27;;;;;;;17.42;100.00;94363.28;10330195;28;20040;-78
2021/08/26 20:51:58;;;;;;;26.92;15.35;;;;;;;17.20;100.00;94350.72;10329708;28;20605;-78
2021/08/26 20:56:59;;;;;;;19.63;8.43;;;;;;;17.15;100.00;94342.75;10329582;28;20048;-79
2021/08/26 21:01:59;;;;;;;18.25;7.25;;;;;;;17.14;100.00;94352.81;10330090;28;20121;-79
2021/08/26 21:07:00;;;;;;;11.90;6.33;;;;;;;17.13;100.00;94351.22;10368149;28;20049;-79
2021/08/26 21:12:00;;;;;;;10.50;6.38;;;;;;;16.98;100.00;94351.75;10336808;28;20038;-79
2021/08/26 21:17:00;;;;;;;13.43;7.57;;;;;;;16.87;100.00;94349.34;10329291;28;20040;-78
2021/08/26 21:22:01;;;;;;;18.80;7.53;;;;;;;16.78;100.00;94356.72;10328875;28;20026;-79
2021/08/26 21:27:02;;;;;;;15.68;8.95;;;;;;;16.75;100.00;94379.06;10329186;28;20496;-78
2021/08/26 21:32:03;;;;;;;15.80;10.07;;;;;;;16.80;100.00;94375.38;10311745;28;20022;-79
2021/08/26 21:37:04;;;;;;;23.55;10.50;;;;;;;16.90;100.00;94370.44;10329249;28;20026;-74
2021/08/26 21:42:04;;;;;;;18.95;10.85;;;;;;;16.98;100.00;94377.00;10327627;28;20029;-74
2021/08/26 21:47:04;;;;;;;18.77;10.87;;;;;;;17.04;100.00;94380.34;10327171;28;20482;-74
2021/08/26 21:52:05;;;;;;;18.48;10.07;;;;;;;16.77;100.00;94387.66;10326368;28;20296;-74
2021/08/26 21:57:06;;;;;;;22.20;11.32;;;;;;;16.83;100.00;94386.41;10326739;28;20041;-73
2021/08/26 22:02:06;;;;;;;22.70;10.45;;;;;;;16.79;100.00;94387.38;10326855;28;20018;-74
2021/08/26 22:07:07;;;;;;;16.90;8.40;;;;;;;16.60;100.00;94366.00;10326405;28;20080;-73
2021/08/26 22:12:08;;;;;;;16.98;8.02;;;;;;;16.47;100.00;94359.63;10326433;28;20303;-74
2021/08/26 22:17:08;;;;;;;16.38;8.82;;;;;;;16.47;100.00;94356.91;10326456;28;20034;-74
2021/08/26 22:22:12;;;;;;;13.23;7.60;;;;;;;16.50;100.00;94346.19;10326079;28;20026;-73
2021/08/26 22:27:12;;;;;;;14.90;8.15;;;;;;;16.53;100.00;94339.34;10324668;28;20273;-73
2021/08/26 22:32:14;;;;;;;12.30;4.93;;;;;;;16.57;100.00;94322.09;10324692;28;20520;-74
2021/08/26 22:37:15;;;;;;;13.15;5.85;;;;;;;16.61;100.00;94335.03;10325441;28;20032;-74
2021/08/26 22:42:16;;;;;;;16.65;5.65;;;;;;;16.46;100.00;94337.09;10328208;28;20386;-74
2021/08/26 22:47:16;;;;;;;14.48;6.80;;;;;;;16.34;100.00;94345.06;10329397;28;20113;-74